Time;durP1;ratioP1;P1;durP2;ratioP2;P2;SDS_P1;SDS_P2;PMS_P1;PMS_P2;Temp;Humidity;BMP_temperature;BMP_pressure;BME280_temperature;BME280_humidity;BME280_pressure;Samples;Min_cycle;Max_cycle;Signal;HPM_P1;HPM_P2
2021/01/21 00:00:57;;;;;;;24.40;22.20;;;5.00;99.90;;;;;;4915202;29;20491;-74
2021/01/21 00:03:24;;;;;;;22.67;20.90;;;5.10;99.90;;;;;;4915526;29;20792;-75
2021/01/21 00:05:50;;;;;;;20.93;19.23;;;5.10;99.90;;;;;;4914912;29;20493;-75
2021/01/21 00:08:16;;;;;;;23.37;21.47;;;5.00;99.90;;;;;;4914885;29;20502;-75
2021/01/21 00:10:42;;;;;;;23.53;21.53;;;5.00;99.90;;;;;;4914986;29;20451;-74
2021/01/21 00:13:09;;;;;;;21.97;19.97;;;5.00;99.90;;;;;;4915197;29;20452;-75
2021/01/21 00:15:35;;;;;;;21.37;19.57;;;5.00;99.90;;;;;;4914665;29;20471;-76
2021/01/21 00:18:01;;;;;;;22.63;20.60;;;5.00;99.90;;;;;;4914757;29;20678;-75
2021/01/21 00:20:28;;;;;;;18.93;17.43;;;5.10;99.90;;;;;;4914634;29;20491;-76
2021/01/21 00:22:54;;;;;;;21.80;20.00;;;5.10;99.90;;;;;;4914513;29;20460;-76
2021/01/21 00:25:20;;;;;;;21.07;19.47;;;5.20;99.90;;;;;;4914454;29;20823;-75
2021/01/21 00:27:46;;;;;;;17.83;16.60;;;5.20;99.90;;;;;;4914773;29;20489;-76
2021/01/21 00:30:15;;;;;;;22.03;20.20;;;5.40;99.90;;;;;;4914671;29;20515;-76
2021/01/21 00:32:41;;;;;;;26.00;23.70;;;5.40;99.90;;;;;;4914567;29;20960;-77
2021/01/21 00:35:08;;;;;;;27.20;24.47;;;5.40;99.90;;;;;;4914684;29;20472;-76
2021/01/21 00:37:34;;;;;;;27.50;25.00;;;5.40;99.90;;;;;;4914291;29;20467;-76
2021/01/21 00:40:00;;;;;;;26.77;24.43;;;5.40;99.90;;;;;;4913964;29;20901;-77
2021/01/21 00:42:27;;;;;;;27.30;25.03;;;5.40;99.90;;;;;;4914441;29;20500;-76
2021/01/21 00:44:53;;;;;;;25.47;23.37;;;5.50;99.90;;;;;;4914694;29;20524;-76
2021/01/21 00:47:20;;;;;;;21.67;19.57;;;5.50;99.90;;;;;;4914063;29;20472;-76
2021/01/21 00:49:46;;;;;;;19.10;17.60;;;5.60;99.90;;;;;;4914228;29;20466;-76
2021/01/21 00:52:12;;;;;;;19.57;17.67;;;5.60;99.90;;;;;;4914329;29;20461;-76
2021/01/21 00:54:38;;;;;;;17.40;16.00;;;5.60;99.90;;;;;;4914383;29;20939;-76
2021/01/21 00:57:04;;;;;;;20.90;18.97;;;5.70;99.90;;;;;;4914216;29;20467;-76
2021/01/21 00:59:31;;;;;;;16.80;15.30;;;5.70;99.90;;;;;;4913741;29;20485;-75
2021/01/21 01:01:57;;;;;;;19.60;18.03;;;5.70;99.90;;;;;;4913947;29;20827;-75
2021/01/21 01:04:24;;;;;;;23.90;21.53;;;5.60;99.90;;;;;;4914329;29;20518;-75
2021/01/21 01:06:50;;;;;;;27.20;22.87;;;5.60;99.90;;;;;;4913792;29;20454;-75
2021/01/21 01:09:16;;;;;;;24.03;21.70;;;5.50;99.90;;;;;;4913636;29;20539;-76
2021/01/21 01:11:42;;;;;;;23.80;21.27;;;5.50;99.90;;;;;;4913880;29;20456;-75
2021/01/21 01:14:09;;;;;;;25.17;22.67;;;5.40;99.90;;;;;;4914382;29;20452;-75
2021/01/21 01:16:35;;;;;;;22.93;20.83;;;5.40;99.90;;;;;;4913515;29;20982;-76
2021/01/21 01:19:01;;;;;;;21.70;19.70;;;5.40;99.90;;;;;;4913867;29;20812;-77
2021/01/21 01:21:28;;;;;;;20.73;19.03;;;5.40;99.90;;;;;;4913550;29;20574;-76
2021/01/21 01:23:54;;;;;;;21.93;19.67;;;5.40;99.90;;;;;;4913875;29;20459;-76
2021/01/21 01:26:20;;;;;;;23.23;20.67;;;5.50;99.90;;;;;;4913688;29;20827;-76
2021/01/21 01:28:47;;;;;;;26.03;23.53;;;5.50;99.90;;;;;;4913592;29;20460;-77
2021/01/21 01:31:13;;;;;;;23.57;21.17;;;5.50;99.90;;;;;;4913547;29;20465;-77
2021/01/21 01:33:39;;;;;;;26.23;23.83;;;5.50;99.90;;;;;;4913241;29;20456;-76
2021/01/21 01:36:06;;;;;;;27.77;25.47;;;5.50;99.90;;;;;;4913378;29;20454;-76
2021/01/21 01:38:33;;;;;;;29.57;27.10;;;5.60;99.90;;;;;;4913318;29;20829;-76
2021/01/21 01:41:00;;;;;;;27.60;25.10;;;5.60;99.90;;;;;;4913120;29;21046;-77
2021/01/21 01:43:26;;;;;;;24.53;22.30;;;5.60;99.90;;;;;;4913753;29;20465;-76
2021/01/21 01:45:52;;;;;;;19.70;18.10;;;5.70;99.90;;;;;;4913796;29;20539;-76
2021/01/21 01:48:19;;;;;;;18.20;16.80;;;5.80;99.90;;;;;;4913408;29;20470;-76
2021/01/21 01:50:45;;;;;;;17.67;16.20;;;5.90;99.90;;;;;;4913323;29;20832;-76
2021/01/21 01:53:12;;;;;;;15.50;14.20;;;6.00;99.90;;;;;;4913235;29;20489;-76
2021/01/21 01:55:40;;;;;;;15.17;13.97;;;6.10;99.90;;;;;;4913596;29;20473;-76
2021/01/21 01:58:08;;;;;;;14.73;13.63;;;6.20;99.90;;;;;;4913507;29;20457;-76
2021/01/21 02:00:34;;;;;;;13.90;13.10;;;6.30;99.90;;;;;;4913107;29;20496;-76
2021/01/21 02:03:01;;;;;;;15.17;14.07;;;6.30;99.90;;;;;;4913167;29;20461;-76
2021/01/21 02:05:27;;;;;;;16.13;14.97;;;6.30;99.90;;;;;;4913312;29;20528;-76
2021/01/21 02:07:54;;;;;;;15.70;14.40;;;6.30;99.90;;;;;;4913372;29;20512;-76
2021/01/21 02:10:21;;;;;;;14.30;13.40;;;6.40;99.90;;;;;;4913145;29;20454;-76
2021/01/21 02:13:30;;;;;;;15.20;13.90;;;6.30;99.90;;;;;;4912834;29;20457;-76
2021/01/21 02:16:09;;;;;;;15.20;14.20;;;6.30;99.90;;;;;;4913291;29;20964;-76
2021/01/21 02:18:41;;;;;;;14.47;13.57;;;6.30;99.90;;;;;;4913338;29;20433;-76
2021/01/21 02:21:31;;;;;;;16.60;15.30;;;6.30;99.90;;;;;;4913425;29;20493;-76
2021/01/21 02:24:33;;;;;;;19.30;17.30;;;6.30;99.90;;;;;;4912858;29;20495;-76
2021/01/21 02:27:03;;;;;;;17.93;16.40;;;6.40;99.90;;;;;;4912994;29;20476;-76
2021/01/21 02:29:32;;;;;;;19.70;17.70;;;6.40;99.90;;;;;;4913026;29;20458;-76
2021/01/21 02:32:17;;;;;;;17.30;16.00;;;6.40;99.90;;;;;;4912866;29;20449;-76
2021/01/21 02:34:50;;;;;;;17.17;15.67;;;6.50;99.90;;;;;;4913289;29;20454;-76
2021/01/21 02:37:23;;;;;;;17.07;15.70;;;6.40;99.90;;;;;;4912796;29;20627;-76
2021/01/21 02:39:52;;;;;;;14.63;13.47;;;6.40;99.90;;;;;;4912462;29;20486;-76
2021/01/21 02:42:18;;;;;;;14.10;13.30;;;6.60;99.90;;;;;;4912790;29;20505;-76
2021/01/21 02:44:44;;;;;;;13.93;12.90;;;7.10;99.90;;;;;;4912703;29;20450;-74
2021/01/21 02:47:11;;;;;;;13.27;12.37;;;7.90;98.40;;;;;;4916277;29;20450;-74
2021/01/21 02:49:38;;;;;;;12.90;12.03;;;8.30;98.10;;;;;;4916557;29;20462;-76
2021/01/21 02:52:08;;;;;;;12.40;11.73;;;8.20;98.60;;;;;;4916555;29;20834;-76
2021/01/21 02:54:44;;;;;;;13.80;13.00;;;8.10;98.50;;;;;;4916128;29;20461;-76
2021/01/21 02:57:18;;;;;;;14.33;13.33;;;8.00;99.60;;;;;;4916194;29;20513;-76
2021/01/21 02:59:45;;;;;;;14.40;13.30;;;7.70;99.90;;;;;;4916071;29;20549;-77
2021/01/21 03:02:13;;;;;;;14.13;13.30;;;7.70;99.90;;;;;;4916123;29;20486;-76
2021/01/21 03:04:40;;;;;;;12.30;11.70;;;7.70;99.90;;;;;;4916440;29;20457;-76
2021/01/21 03:07:10;;;;;;;11.50;10.97;;;7.70;99.50;;;;;;4915907;29;20454;-76
2021/01/21 03:09:37;;;;;;;11.97;11.20;;;7.90;98.20;;;;;;4916111;29;20450;-76
2021/01/21 03:12:17;;;;;;;10.80;10.30;;;8.20;97.50;;;;;;4915657;29;20526;-76
2021/01/21 03:14:43;;;;;;;12.20;11.40;;;8.40;96.10;;;;;;4915870;29;20453;-76
2021/01/21 03:17:09;;;;;;;17.23;15.80;;;8.60;95.60;;;;;;4916142;29;20446;-76
2021/01/21 03:19:36;;;;;;;18.20;16.40;;;8.40;97.80;;;;;;4915922;29;20957;-76
2021/01/21 03:22:02;;;;;;;20.97;19.17;;;8.00;99.70;;;;;;4915686;29;20945;-77
2021/01/21 03:24:29;;;;;;;18.03;16.83;;;7.60;99.90;;;;;;4915415;29;20968;-78
2021/01/21 03:26:55;;;;;;;17.37;16.27;;;7.30;99.90;;;;;;4915895;29;20454;-78
2021/01/21 03:29:21;;;;;;;18.63;17.40;;;7.20;99.90;;;;;;4916036;29;20459;-76
2021/01/21 03:31:48;;;;;;;21.17;19.37;;;7.30;99.90;;;;;;4915498;29;20462;-76
2021/01/21 03:34:14;;;;;;;19.40;17.90;;;7.40;99.90;;;;;;4915324;29;20465;-76
2021/01/21 03:36:40;;;;;;;19.47;17.90;;;7.50;99.90;;;;;;4915918;29;20454;-77
2021/01/21 03:39:06;;;;;;;20.73;19.23;;;7.50;99.90;;;;;;4915308;29;20475;-76
2021/01/21 03:41:33;;;;;;;19.80;17.77;;;7.50;99.90;;;;;;4915322;29;21107;-76
2021/01/21 03:43:59;;;;;;;18.93;17.57;;;7.40;99.90;;;;;;4915148;29;20453;-77
2021/01/21 03:46:25;;;;;;;17.27;16.03;;;7.30;99.90;;;;;;4915511;29;20835;-76
2021/01/21 03:48:52;;;;;;;19.60;18.00;;;7.20;99.90;;;;;;4915449;29;20459;-76
2021/01/21 03:51:18;;;;;;;17.93;16.63;;;7.20;99.90;;;;;;4915092;29;20455;-77
2021/01/21 03:53:44;;;;;;;15.60;14.63;;;7.10;99.90;;;;;;4915013;29;20462;-76
2021/01/21 03:56:10;;;;;;;15.07;13.93;;;7.10;99.90;;;;;;4915321;29;20462;-76
2021/01/21 03:58:37;;;;;;;19.03;17.37;;;7.20;99.90;;;;;;4914668;29;20457;-77
2021/01/21 04:01:03;;;;;;;21.27;19.60;;;7.20;99.90;;;;;;4915084;29;20494;-76
2021/01/21 04:03:29;;;;;;;23.60;21.47;;;7.20;99.90;;;;;;4915113;29;20461;-77
2021/01/21 04:05:56;;;;;;;24.93;22.70;;;7.20;99.90;;;;;;4915102;29;20458;-76
2021/01/21 04:08:22;;;;;;;24.77;22.87;;;7.10;99.90;;;;;;4915632;29;20465;-76
2021/01/21 04:10:48;;;;;;;24.63;22.93;;;7.00;99.90;;;;;;4914744;29;20514;-76
2021/01/21 04:13:14;;;;;;;24.47;22.50;;;7.00;99.90;;;;;;4914512;29;20458;-77
2021/01/21 04:15:41;;;;;;;23.23;21.30;;;7.00;99.90;;;;;;4914998;29;20458;-77
2021/01/21 04:18:07;;;;;;;21.20;19.60;;;7.00;99.90;;;;;;4915080;29;20465;-77
2021/01/21 04:20:33;;;;;;;19.50;18.00;;;6.90;99.90;;;;;;4914715;29;20862;-77
2021/01/21 04:23:00;;;;;;;18.80;16.80;;;6.80;99.90;;;;;;4914688;29;20461;-77
2021/01/21 04:25:26;;;;;;;19.03;17.60;;;6.80;99.90;;;;;;4914903;29;20492;-77
2021/01/21 04:27:52;;;;;;;22.40;20.50;;;6.70;99.90;;;;;;4914756;29;20457;-77
2021/01/21 04:30:19;;;;;;;21.77;19.63;;;6.70;99.90;;;;;;4914605;29;20462;-76
2021/01/21 04:32:46;;;;;;;25.07;22.77;;;6.70;99.90;;;;;;4914380;29;20998;-76
2021/01/21 04:35:12;;;;;;;24.03;21.63;;;6.70;99.90;;;;;;4914604;29;20453;-76
2021/01/21 04:37:39;;;;;;;20.37;18.80;;;6.80;99.90;;;;;;4914415;29;20478;-76
2021/01/21 04:40:06;;;;;;;22.80;20.80;;;6.90;99.90;;;;;;4913881;29;20493;-75
2021/01/21 04:42:34;;;;;;;22.17;20.20;;;7.00;99.90;;;;;;4914276;29;20486;-75
2021/01/21 04:45:00;;;;;;;18.93;17.17;;;7.00;99.90;;;;;;4914401;29;20842;-76
2021/01/21 04:47:28;;;;;;;15.10;14.20;;;7.00;99.90;;;;;;4913922;29;20458;-74
2021/01/21 04:49:56;;;;;;;14.63;13.63;;;7.10;99.90;;;;;;4914418;29;20822;-76
2021/01/21 04:52:25;;;;;;;12.90;12.10;;;7.20;99.90;;;;;;4914341;29;20478;-76
2021/01/21 04:54:53;;;;;;;13.03;12.13;;;7.40;99.90;;;;;;4914317;29;20465;-75
2021/01/21 04:57:29;;;;;;;14.93;13.93;;;7.40;99.90;;;;;;4913932;29;20462;-74
2021/01/21 04:59:56;;;;;;;14.50;13.20;;;7.40;99.90;;;;;;4914063;29;20449;-75
2021/01/21 05:02:24;;;;;;;13.30;12.20;;;7.40;99.90;;;;;;4914496;29;20954;-75
2021/01/21 05:04:50;;;;;;;13.17;12.47;;;7.50;99.90;;;;;;4914026;29;20451;-75
2021/01/21 05:07:17;;;;;;;12.73;12.13;;;7.50;99.90;;;;;;4913709;29;20481;-74
2021/01/21 05:09:44;;;;;;;13.40;12.60;;;7.50;99.90;;;;;;4913988;29;20457;-74
2021/01/21 05:12:11;;;;;;;13.43;12.60;;;7.60;99.70;;;;;;4914185;29;20850;-74
2021/01/21 05:14:37;;;;;;;12.20;11.53;;;7.70;99.50;;;;;;4913947;29;20478;-74
2021/01/21 05:17:03;;;;;;;12.90;12.00;;;7.80;99.30;;;;;;4913690;29;20954;-75
2021/01/21 05:19:32;;;;;;;13.27;12.17;;;7.90;99.00;;;;;;4913598;29;20462;-74
2021/01/21 05:22:01;;;;;;;13.23;12.17;;;8.00;98.80;;;;;;4913085;29;20526;-75
2021/01/21 05:24:28;;;;;;;14.07;13.13;;;8.10;98.70;;;;;;4913471;29;20450;-74
2021/01/21 05:26:55;;;;;;;14.80;13.30;;;8.10;98.40;;;;;;4913854;29;20458;-74
2021/01/21 05:29:22;;;;;;;14.33;13.07;;;8.20;98.30;;;;;;4913332;29;20544;-74
2021/01/21 05:31:49;;;;;;;12.90;11.93;;;8.30;97.70;;;;;;4913573;29;20454;-75
2021/01/21 05:34:17;;;;;;;13.00;12.10;;;8.50;96.90;;;;;;4913707;29;20459;-75
2021/01/21 05:36:44;;;;;;;11.70;11.10;;;8.70;96.40;;;;;;4913573;29;20458;-75
2021/01/21 05:39:11;;;;;;;12.93;12.13;;;8.80;95.70;;;;;;4913131;29;20486;-75
2021/01/21 05:41:38;;;;;;;12.40;11.60;;;9.00;95.10;;;;;;4913355;29;20490;-76
2021/01/21 05:44:06;;;;;;;12.83;12.10;;;9.20;94.40;;;;;;4913258;29;20455;-75
2021/01/21 05:46:33;;;;;;;15.43;14.33;;;9.40;94.30;;;;;;4913587;29;20457;-75
2021/01/21 05:49:00;;;;;;;12.80;11.90;;;9.50;94.20;;;;;;4913162;29;20458;-76
2021/01/21 05:51:28;;;;;;;12.30;11.53;;;9.50;94.50;;;;;;4913354;29;20818;-75
2021/01/21 05:53:55;;;;;;;12.93;11.50;;;9.40;94.50;;;;;;4913618;29;20470;-75
2021/01/21 05:56:22;;;;;;;13.03;11.70;;;9.40;94.40;;;;;;4913331;29;20865;-75
2021/01/21 05:58:51;;;;;;;12.93;12.03;;;9.40;94.50;;;;;;4913385;29;20461;-74
2021/01/21 06:01:19;;;;;;;11.60;11.00;;;9.50;94.30;;;;;;4913172;29;20576;-75
2021/01/21 06:03:45;;;;;;;13.43;12.33;;;9.60;93.40;;;;;;4913109;29;20894;-75
2021/01/21 06:06:12;;;;;;;11.20;10.63;;;9.70;93.40;;;;;;4913039;29;20962;-75
2021/01/21 06:08:39;;;;;;;13.10;12.30;;;9.90;92.50;;;;;;4913222;29;20454;-74
2021/01/21 06:11:06;;;;;;;13.17;12.20;;;10.10;91.60;;;;;;4913429;29;20834;-74
2021/01/21 06:13:34;;;;;;;14.97;12.30;;;10.20;91.30;;;;;;4913017;29;20457;-75
2021/01/21 06:16:04;;;;;;;12.73;11.97;;;10.30;91.10;;;;;;4912820;29;20952;-76
2021/01/21 06:18:30;;;;;;;12.20;11.50;;;10.40;90.50;;;;;;4913185;29;20952;-75
2021/01/21 06:20:56;;;;;;;12.30;11.60;;;10.50;90.30;;;;;;4914459;29;20489;-75
2021/01/21 06:23:25;;;;;;;14.33;12.77;;;10.50;90.10;;;;;;4917146;29;20864;-76
2021/01/21 06:25:52;;;;;;;13.20;12.30;;;10.60;89.60;;;;;;4916905;29;20454;-74
2021/01/21 06:28:21;;;;;;;12.03;11.33;;;10.70;88.90;;;;;;4916800;29;20516;-75
2021/01/21 06:30:49;;;;;;;12.07;11.37;;;10.70;88.60;;;;;;4916495;29;20518;-75
2021/01/21 06:33:18;;;;;;;10.93;10.27;;;10.80;87.90;;;;;;4916543;29;20454;-75
2021/01/21 06:36:00;;;;;;;12.37;11.43;;;10.90;86.10;;;;;;4916419;29;20972;-75
2021/01/21 06:38:30;;;;;;;12.27;11.27;;;11.10;85.40;;;;;;4916560;29;20478;-74
2021/01/21 06:41:01;;;;;;;12.00;11.30;;;11.20;84.00;;;;;;4916126;29;20486;-75
2021/01/21 06:43:31;;;;;;;13.33;12.27;;;11.30;83.10;;;;;;4916805;29;20512;-76
2021/01/21 06:45:58;;;;;;;11.47;10.97;;;11.40;82.60;;;;;;4916667;29;20497;-75
2021/01/21 06:48:26;;;;;;;11.93;11.00;;;11.50;82.80;;;;;;4916710;29;20465;-75
2021/01/21 06:50:52;;;;;;;12.10;10.30;;;11.50;81.70;;;;;;4916446;29;20466;-76
2021/01/21 06:53:19;;;;;;;11.60;10.90;;;11.60;81.50;;;;;;4916222;29;20944;-74
2021/01/21 06:55:48;;;;;;;12.87;11.90;;;11.60;81.50;;;;;;4916382;29;20458;-75
2021/01/21 06:58:14;;;;;;;20.17;12.37;;;11.60;81.10;;;;;;4916217;29;20454;-75
2021/01/21 07:00:43;;;;;;;11.50;10.60;;;11.60;81.50;;;;;;4916346;29;20450;-75
2021/01/21 07:03:28;;;;;;;13.00;12.30;;;11.60;81.10;;;;;;4916314;29;20477;-75
2021/01/21 07:05:59;;;;;;;11.40;10.70;;;11.60;81.80;;;;;;4916417;29;20513;-75
2021/01/21 07:08:25;;;;;;;11.43;10.67;;;11.60;82.40;;;;;;4916214;29;20465;-76
2021/01/21 07:10:52;;;;;;;10.30;9.70;;;11.60;83.10;;;;;;4916214;29;20453;-76
2021/01/21 07:13:20;;;;;;;10.43;9.63;;;11.60;85.80;;;;;;4915748;29;20941;-74
2021/01/21 07:15:48;;;;;;;10.37;10.07;;;11.90;88.20;;;;;;4915588;29;20464;-76
2021/01/21 07:18:19;;;;;;;10.50;10.10;;;12.00;89.70;;;;;;4915643;29;20940;-76
2021/01/21 07:21:12;;;;;;;10.67;9.67;;;12.10;90.50;;;;;;4915599;29;20446;-76
2021/01/21 07:23:42;;;;;;;11.30;10.70;;;12.10;91.10;;;;;;4915946;29;20496;-76
2021/01/21 07:26:25;;;;;;;9.80;9.40;;;12.00;91.80;;;;;;4915860;29;20497;-76
2021/01/21 07:28:59;;;;;;;9.80;9.40;;;11.90;92.30;;;;;;4915910;29;20462;-77
2021/01/21 07:31:26;;;;;;;10.40;10.00;;;12.00;92.60;;;;;;4915431;29;20824;-76
2021/01/21 07:34:22;;;;;;;9.77;9.47;;;12.00;92.80;;;;;;4915171;29;20541;-77
2021/01/21 07:37:11;;;;;;;9.63;9.33;;;12.00;93.10;;;;;;4915425;29;20461;-77
2021/01/21 07:40:02;;;;;;;10.07;9.67;;;11.90;93.40;;;;;;4915053;29;20865;-77
2021/01/21 07:42:53;;;;;;;12.33;11.23;;;12.00;93.50;;;;;;4915203;29;20497;-76
2021/01/21 07:45:29;;;;;;;9.70;9.33;;;12.00;93.60;;;;;;4915163;29;20976;-76
2021/01/21 07:47:56;;;;;;;9.93;9.63;;;12.00;93.70;;;;;;4915943;29;20458;-76
2021/01/21 07:50:36;;;;;;;11.07;10.47;;;12.00;93.60;;;;;;4915460;29;20837;-77
2021/01/21 07:53:18;;;;;;;10.53;9.87;;;12.10;93.40;;;;;;4914857;29;20458;-76
2021/01/21 07:55:46;;;;;;;10.67;10.17;;;12.20;93.20;;;;;;4915236;29;21172;-76
2021/01/21 07:58:28;;;;;;;11.00;10.43;;;12.50;92.90;;;;;;4914993;29;21031;-77
2021/01/21 08:00:55;;;;;;;9.73;9.43;;;12.70;92.60;;;;;;4915103;29;20469;-76
2021/01/21 08:03:29;;;;;;;11.10;10.47;;;13.00;92.20;;;;;;4915212;29;20562;-75
2021/01/21 08:06:27;;;;;;;11.27;10.27;;;13.50;91.40;;;;;;4914950;29;20458;-72
2021/01/21 08:08:54;;;;;;;10.10;9.80;;;13.80;90.70;;;;;;4898400;29;20459;-75
2021/01/21 08:11:22;;;;;;;10.93;10.30;;;14.00;90.40;;;;;;4914968;29;20485;-75
2021/01/21 08:13:55;;;;;;;10.30;9.90;;;14.20;89.90;;;;;;4914950;29;20456;-74
2021/01/21 08:16:21;;;;;;;10.47;9.97;;;14.10;90.00;;;;;;4915165;29;20458;-72
2021/01/21 08:18:48;;;;;;;12.13;11.53;;;14.30;89.50;;;;;;4914757;29;20895;-73
2021/01/21 08:21:21;;;;;;;11.43;10.73;;;14.40;89.00;;;;;;4914590;29;20553;-73
2021/01/21 08:23:56;;;;;;;10.40;9.80;;;13.90;90.20;;;;;;4914590;29;20623;-73
2021/01/21 08:26:23;;;;;;;11.20;10.70;;;13.90;90.50;;;;;;4914665;29;20468;-73
2021/01/21 08:28:50;;;;;;;10.30;10.00;;;14.00;90.20;;;;;;4911861;29;20474;-73
2021/01/21 08:31:16;;;;;;;10.53;10.03;;;13.90;90.50;;;;;;4914419;29;20447;-73
2021/01/21 08:33:44;;;;;;;9.90;9.53;;;14.10;90.50;;;;;;4914583;29;20450;-73
2021/01/21 08:36:12;;;;;;;10.27;9.57;;;14.00;90.70;;;;;;4914718;29;20446;-73
2021/01/21 08:38:42;;;;;;;10.33;10.00;;;13.80;91.40;;;;;;4914788;29;20470;-74
2021/01/21 08:41:13;;;;;;;9.93;9.53;;;13.60;91.90;;;;;;4914749;29;20494;-74
2021/01/21 08:43:41;;;;;;;10.17;9.50;;;13.90;91.70;;;;;;4914566;29;20550;-74
2021/01/21 08:46:15;;;;;;;10.40;10.00;;;13.80;91.80;;;;;;4914560;29;20506;-73
2021/01/21 08:48:41;;;;;;;9.60;9.30;;;14.00;92.00;;;;;;4914570;29;20469;-74
2021/01/21 08:51:41;;;;;;;10.17;9.87;;;13.90;91.90;;;;;;4914498;29;20454;-73
2021/01/21 08:54:13;;;;;;;10.27;9.87;;;13.70;92.30;;;;;;4914660;29;20453;-73
2021/01/21 08:56:40;;;;;;;9.77;9.47;;;13.60;92.40;;;;;;4914251;29;20461;-74
2021/01/21 08:59:27;;;;;;;10.33;9.63;;;13.50;92.60;;;;;;4914358;29;20478;-73
2021/01/21 09:01:54;;;;;;;10.17;9.43;;;13.30;92.70;;;;;;4914010;29;20486;-73
2021/01/21 09:04:25;;;;;;;9.40;9.10;;;13.30;92.90;;;;;;4914044;29;20462;-73
2021/01/21 09:06:55;;;;;;;10.30;9.60;;;13.30;93.00;;;;;;4914254;29;20454;-73
2021/01/21 09:09:25;;;;;;;10.07;9.77;;;13.90;92.20;;;;;;4914211;29;20473;-74
2021/01/21 09:11:52;;;;;;;10.03;9.43;;;14.20;91.40;;;;;;4914175;29;20525;-74
2021/01/21 09:14:19;;;;;;;10.23;9.77;;;14.30;91.50;;;;;;4913843;29;20969;-73
2021/01/21 09:16:47;;;;;;;9.83;9.53;;;14.90;90.70;;;;;;4914041;29;20462;-73
2021/01/21 09:19:15;;;;;;;10.00;9.70;;;15.40;89.60;;;;;;4913582;29;20455;-73
2021/01/21 09:21:58;;;;;;;9.70;9.40;;;15.60;89.00;;;;;;4913801;29;20501;-73
2021/01/21 09:24:24;;;;;;;10.80;10.40;;;16.00;87.40;;;;;;4914114;29;20465;-73
2021/01/21 09:27:13;;;;;;;10.03;9.70;;;16.00;87.40;;;;;;4913647;29;20458;-73
2021/01/21 09:29:47;;;;;;;10.97;10.47;;;16.40;86.40;;;;;;4913867;29;20964;-73
2021/01/21 09:32:13;;;;;;;9.90;9.57;;;16.60;84.40;;;;;;4913609;29;20450;-73
2021/01/21 09:34:50;;;;;;;9.77;9.40;;;16.70;84.70;;;;;;4913917;29;20455;-74
2021/01/21 09:37:16;;;;;;;10.27;9.63;;;17.10;84.20;;;;;;4913814;29;20453;-74
2021/01/21 09:39:42;;;;;;;9.50;9.10;;;17.00;83.90;;;;;;4913510;29;20489;-73
2021/01/21 09:42:08;;;;;;;10.40;10.00;;;16.50;84.60;;;;;;4913641;29;20904;-73
2021/01/21 09:44:35;;;;;;;9.63;9.33;;;15.70;87.30;;;;;;4913807;29;20454;-73
2021/01/21 09:47:01;;;;;;;9.83;9.43;;;14.90;89.50;;;;;;4913765;29;20526;-73
2021/01/21 09:49:27;;;;;;;9.77;9.47;;;14.50;90.60;;;;;;4913670;29;20458;-72
2021/01/21 09:51:54;;;;;;;9.73;9.43;;;14.30;91.20;;;;;;4913834;29;20457;-72
2021/01/21 09:54:20;;;;;;;10.10;9.80;;;14.10;91.70;;;;;;4913517;29;20462;-73
2021/01/21 09:56:46;;;;;;;10.40;10.00;;;14.10;91.80;;;;;;4913093;29;20840;-72
2021/01/21 09:59:12;;;;;;;10.57;10.27;;;14.50;91.40;;;;;;4913468;29;20465;-73
2021/01/21 10:01:39;;;;;;;11.10;10.57;;;15.50;90.60;;;;;;4913824;29;20498;-73
2021/01/21 10:04:05;;;;;;;10.43;10.13;;;16.10;88.80;;;;;;4913659;29;20573;-73
2021/01/21 10:06:31;;;;;;;10.63;10.23;;;16.50;86.60;;;;;;4913390;29;20466;-73
2021/01/21 10:08:58;;;;;;;10.83;10.43;;;16.60;86.30;;;;;;4913459;29;20466;-73
2021/01/21 10:11:24;;;;;;;10.83;10.50;;;16.80;85.90;;;;;;4913811;29;20447;-73
2021/01/21 10:13:50;;;;;;;11.83;11.20;;;16.90;85.00;;;;;;4913642;29;20462;-72
2021/01/21 10:16:17;;;;;;;11.43;10.80;;;17.20;85.10;;;;;;4913493;29;20458;-73
2021/01/21 10:18:44;;;;;;;11.17;10.67;;;17.80;83.00;;;;;;4913340;29;20971;-73
2021/01/21 10:21:10;;;;;;;10.60;10.10;;;17.80;82.10;;;;;;4913354;29;20459;-73
2021/01/21 10:23:36;;;;;;;11.07;10.67;;;17.00;83.00;;;;;;4913604;29;20454;-73
2021/01/21 10:26:03;;;;;;;10.40;10.10;;;16.00;86.20;;;;;;4913467;29;20461;-72
2021/01/21 10:28:29;;;;;;;10.60;10.30;;;15.50;88.50;;;;;;4913330;29;20878;-73
2021/01/21 10:30:55;;;;;;;11.00;10.33;;;16.00;87.60;;;;;;4913652;29;20458;-73
2021/01/21 10:33:21;;;;;;;10.73;10.33;;;17.00;85.60;;;;;;4913329;29;20454;-73
2021/01/21 10:35:48;;;;;;;10.63;10.33;;;17.40;83.50;;;;;;4913153;29;20745;-73
2021/01/21 10:38:14;;;;;;;10.60;10.13;;;18.00;82.60;;;;;;4913045;29;20502;-74
2021/01/21 10:40:41;;;;;;;10.53;10.23;;;18.40;80.70;;;;;;4913185;29;20482;-74
2021/01/21 10:43:08;;;;;;;10.20;9.90;;;18.50;80.10;;;;;;4913406;29;20486;-73
2021/01/21 10:45:34;;;;;;;10.37;10.07;;;17.70;81.00;;;;;;4913094;29;20819;-73
2021/01/21 10:48:00;;;;;;;10.50;10.20;;;16.90;83.60;;;;;;4912828;29;20465;-73
2021/01/21 10:50:26;;;;;;;9.83;9.53;;;16.30;85.10;;;;;;4913185;29;20462;-73
2021/01/21 10:52:53;;;;;;;10.70;10.30;;;16.40;85.70;;;;;;4913463;29;20457;-74
2021/01/21 10:55:19;;;;;;;10.10;9.80;;;16.60;85.20;;;;;;4913047;29;20979;-73
2021/01/21 10:57:46;;;;;;;10.30;9.90;;;16.70;84.50;;;;;;4913028;29;20864;-73
2021/01/21 11:00:13;;;;;;;10.20;9.90;;;16.80;85.60;;;;;;4913203;29;20458;-74
2021/01/21 11:02:39;;;;;;;10.37;9.87;;;16.80;86.40;;;;;;4913139;29;20874;-74
2021/01/21 11:05:07;;;;;;;9.90;9.60;;;16.50;87.90;;;;;;4913013;29;20457;-73
2021/01/21 11:07:33;;;;;;;10.13;9.83;;;17.20;86.20;;;;;;4915268;29;20454;-74
2021/01/21 11:10:00;;;;;;;10.10;9.80;;;17.40;84.50;;;;;;4916263;29;20818;-74
2021/01/21 11:12:26;;;;;;;9.00;8.70;;;16.90;85.20;;;;;;4916513;29;20458;-74
2021/01/21 11:14:54;;;;;;;10.20;9.80;;;16.80;86.50;;;;;;4916269;29;20455;-74
2021/01/21 11:17:21;;;;;;;9.73;9.43;;;16.90;85.90;;;;;;4916125;29;20450;-74
2021/01/21 11:19:47;;;;;;;10.10;9.70;;;17.10;85.70;;;;;;4915823;29;20470;-74
2021/01/21 11:22:13;;;;;;;9.70;9.40;;;17.30;85.90;;;;;;4915909;29;20846;-74
2021/01/21 11:24:39;;;;;;;9.70;9.40;;;17.40;86.50;;;;;;4916247;29;20451;-74
2021/01/21 11:27:07;;;;;;;9.50;9.20;;;16.70;87.20;;;;;;4915904;29;20454;-74
2021/01/21 11:29:33;;;;;;;10.10;9.63;;;16.10;88.10;;;;;;4915753;29;20502;-75
2021/01/21 11:31:59;;;;;;;9.70;9.20;;;15.60;89.70;;;;;;4915781;29;20976;-73
2021/01/21 11:34:25;;;;;;;9.30;9.00;;;15.60;90.20;;;;;;4916007;29;20454;-74
2021/01/21 11:36:52;;;;;;;9.80;9.50;;;15.30;90.40;;;;;;4915688;29;20458;-74
2021/01/21 11:39:18;;;;;;;10.63;10.03;;;15.20;90.70;;;;;;4914923;29;20494;-74
2021/01/21 11:41:44;;;;;;;10.40;10.10;;;15.70;90.40;;;;;;4915349;29;20503;-74
2021/01/21 11:44:11;;;;;;;11.00;10.60;;;16.70;87.40;;;;;;4915793;29;20470;-74
2021/01/21 11:46:37;;;;;;;11.00;10.60;;;16.60;86.80;;;;;;4916032;29;20454;-73
2021/01/21 11:49:04;;;;;;;10.20;9.90;;;15.90;88.50;;;;;;4915867;29;20466;-73
2021/01/21 11:51:30;;;;;;;9.60;9.30;;;15.60;89.40;;;;;;4915517;29;20450;-74
2021/01/21 11:53:56;;;;;;;10.43;9.93;;;15.60;89.70;;;;;;4913270;29;20596;-73
2021/01/21 11:56:22;;;;;;;10.30;9.90;;;15.40;90.00;;;;;;4914397;29;20455;-73
2021/01/21 11:58:48;;;;;;;11.00;10.60;;;15.50;90.10;;;;;;4913145;29;20457;-73
2021/01/21 12:01:15;;;;;;;9.87;9.57;;;15.30;90.00;;;;;;4914678;29;20465;-73
2021/01/21 12:03:42;;;;;;;10.90;10.43;;;15.20;90.20;;;;;;4915043;29;20456;-73
2021/01/21 12:06:08;;;;;;;10.70;10.20;;;15.30;90.20;;;;;;4914998;29;20462;-73
2021/01/21 12:08:34;;;;;;;11.53;11.13;;;15.10;90.40;;;;;;4914756;29;20462;-73
2021/01/21 12:11:01;;;;;;;10.43;10.03;;;15.10;90.70;;;;;;4914878;29;20458;-73
2021/01/21 12:13:27;;;;;;;10.23;9.93;;;14.80;90.80;;;;;;4914877;29;20462;-73
2021/01/21 12:15:53;;;;;;;10.53;9.93;;;14.80;91.00;;;;;;4915004;29;20457;-73
2021/01/21 12:18:20;;;;;;;9.90;9.40;;;14.80;90.90;;;;;;4914055;29;20469;-73
2021/01/21 12:20:46;;;;;;;10.40;10.00;;;15.00;90.80;;;;;;4912880;29;20496;-73
2021/01/21 12:23:13;;;;;;;9.80;9.50;;;15.30;90.70;;;;;;4914338;29;20490;-74
2021/01/21 12:25:39;;;;;;;10.43;10.10;;;15.60;90.30;;;;;;4914931;29;20466;-74
2021/01/21 12:28:05;;;;;;;10.40;10.10;;;15.60;90.00;;;;;;4914549;29;20458;-74
2021/01/21 12:30:31;;;;;;;9.20;8.90;;;15.40;90.00;;;;;;4914459;29;20466;-74
2021/01/21 12:32:58;;;;;;;10.00;9.60;;;15.40;90.40;;;;;;4914398;29;20459;-74
2021/01/21 12:35:25;;;;;;;9.67;9.37;;;15.40;90.30;;;;;;4914622;29;20517;-74
2021/01/21 12:37:51;;;;;;;10.20;9.80;;;15.40;90.30;;;;;;4914457;29;20478;-74
2021/01/21 12:40:18;;;;;;;10.10;9.73;;;15.30;90.40;;;;;;4913932;29;20489;-74
2021/01/21 12:42:44;;;;;;;9.70;9.30;;;15.30;90.60;;;;;;4914134;29;20887;-74